createdAt,value
2016-11-27T00:00:45.261Z,3.1
2016-11-27T00:01:45.110Z,3.07
2016-11-27T00:02:45.204Z,3.15
2016-11-27T00:03:47.133Z,3.07
2016-11-27T00:04:45.952Z,3.2
2016-11-27T00:05:46.606Z,3.16
2016-11-27T00:06:45.079Z,3.16
2016-11-27T00:07:45.188Z,3.13
2016-11-27T00:08:45.104Z,3.28
2016-11-27T00:09:45.197Z,3.2
2016-11-27T00:10:45.198Z,3.12
2016-11-27T00:11:45.169Z,3.33
2016-11-27T00:12:45.101Z,3.27
2016-11-27T00:13:45.169Z,3.18
2016-11-27T00:14:45.154Z,3.3
2016-11-27T00:15:45.214Z,3.4
2016-11-27T00:16:45.252Z,3.2
2016-11-27T00:17:45.164Z,3.39
2016-11-27T00:18:45.131Z,3.3
2016-11-27T00:19:45.155Z,3.25
2016-11-27T00:20:45.205Z,3.28
2016-11-27T00:21:45.169Z,3.23
2016-11-27T00:22:45.260Z,3.34
2016-11-27T00:23:45.249Z,3.36
2016-11-27T00:24:45.181Z,3.23
2016-11-27T00:25:45.159Z,3.34
2016-11-27T00:26:45.195Z,3.33
2016-11-27T00:27:45.149Z,3.39
2016-11-27T00:28:45.139Z,3.21
2016-11-27T00:29:45.240Z,3.43
2016-11-27T00:30:45.234Z,3.3
2016-11-27T00:31:45.114Z,3.33
2016-11-27T00:32:45.065Z,3.33
2016-11-27T00:33:45.081Z,3.33
2016-11-27T00:34:45.104Z,3.39
2016-11-27T00:35:45.079Z,3.46
2016-11-27T00:36:45.102Z,3.36
2016-11-27T00:37:45.080Z,3.52
2016-11-27T00:38:45.082Z,3.39
2016-11-27T00:39:45.105Z,3.52
2016-11-27T00:40:45.097Z,3.49
2016-11-27T00:41:45.115Z,3.44
2016-11-27T00:42:45.121Z,3.49
2016-11-27T00:43:45.115Z,3.61
2016-11-27T00:44:45.115Z,3.52
2016-11-27T00:45:45.086Z,3.58
2016-11-27T00:46:45.115Z,3.64
2016-11-27T00:47:45.123Z,3.58
2016-11-27T00:48:45.101Z,3.53
2016-11-27T00:49:45.097Z,3.54
2016-11-27T00:50:45.086Z,3.54
2016-11-27T00:51:45.127Z,3.5
2016-11-27T00:52:45.097Z,3.47
2016-11-27T00:53:45.119Z,3.57
2016-11-27T00:54:45.098Z,3.62
2016-11-27T00:55:45.118Z,3.5
2016-11-27T00:56:45.133Z,3.52
2016-11-27T00:57:45.110Z,3.52
2016-11-27T00:58:45.096Z,3.7
2016-11-27T00:59:45.152Z,3.65
2016-11-27T01:00:45.115Z,3.71
2016-11-27T01:01:45.108Z,3.75
2016-11-27T01:02:45.165Z,3.54
2016-11-27T01:03:45.120Z,3.65
2016-11-27T01:04:45.112Z,3.75
2016-11-27T01:05:45.100Z,3.78
2016-11-27T01:06:45.158Z,3.72
2016-11-27T01:07:45.122Z,3.75
2016-11-27T01:08:45.112Z,3.7
2016-11-27T01:09:45.118Z,3.71
2016-11-27T01:10:45.134Z,3.7
2016-11-27T01:11:45.172Z,3.68
2016-11-27T01:12:45.129Z,3.68
2016-11-27T01:13:45.137Z,3.8
2016-11-27T01:14:45.125Z,3.76
2016-11-27T01:15:45.115Z,3.79
2016-11-27T01:16:45.134Z,3.78
2016-11-27T01:17:45.107Z,3.75
2016-11-27T01:18:45.118Z,3.78
2016-11-27T01:19:45.137Z,3.8
2016-11-27T01:20:45.107Z,3.78
2016-11-27T01:21:45.123Z,3.8
2016-11-27T01:22:45.099Z,3.78
2016-11-27T01:23:45.091Z,3.79
2016-11-27T01:24:45.114Z,3.85
2016-11-27T01:25:45.121Z,3.76
2016-11-27T01:26:45.142Z,3.67
2016-11-27T01:27:45.147Z,3.89
2016-11-27T01:28:45.115Z,3.92
2016-11-27T01:29:45.149Z,3.79
2016-11-27T01:30:45.144Z,3.76
2016-11-27T01:31:45.133Z,3.86
2016-11-27T01:32:45.164Z,3.94
2016-11-27T01:33:45.133Z,3.85
2016-11-27T01:34:45.142Z,3.89
2016-11-27T01:35:45.135Z,3.86
2016-11-27T01:36:45.152Z,3.89
2016-11-27T01:37:45.128Z,4.06
2016-11-27T01:38:45.168Z,4.04
2016-11-27T01:39:45.134Z,3.96
2016-11-27T01:40:45.123Z,4.03
2016-11-27T01:41:45.160Z,4.01
2016-11-27T01:42:45.147Z,3.92
2016-11-27T01:43:45.116Z,4.01
2016-11-27T01:44:45.175Z,4.04
2016-11-27T01:45:45.169Z,4.01
2016-11-27T01:46:45.159Z,4.08
2016-11-27T01:47:45.134Z,4.07
2016-11-27T01:48:45.168Z,3.97
2016-11-27T01:49:45.131Z,4.12
2016-11-27T01:50:45.204Z,4.15
2016-11-27T01:51:45.190Z,4.15
2016-11-27T01:52:45.150Z,4.08
2016-11-27T01:53:45.149Z,4.12
2016-11-27T01:54:45.143Z,4.16
2016-11-27T01:55:45.215Z,4.19
2016-11-27T01:56:45.136Z,4.18
2016-11-27T01:57:45.160Z,4.29
2016-11-27T01:58:45.154Z,4.29
2016-11-27T01:59:45.151Z,4.39
2016-11-27T02:00:45.182Z,4.36
2016-11-27T02:01:45.195Z,4.34
2016-11-27T02:02:45.180Z,4.28
2016-11-27T02:03:45.156Z,4.4
2016-11-27T02:04:45.134Z,4.4
2016-11-27T02:05:45.156Z,4.5
2016-11-27T02:06:45.155Z,4.52
2016-11-27T02:07:45.185Z,4.36
2016-11-27T02:08:45.157Z,4.44
2016-11-27T02:09:45.182Z,4.51
2016-11-27T02:10:45.163Z,4.44
2016-11-27T02:11:45.171Z,4.36
2016-11-27T02:12:45.163Z,4.43
2016-11-27T02:13:45.141Z,4.51
2016-11-27T02:14:45.155Z,4.62
2016-11-27T02:15:45.155Z,4.43
2016-11-27T02:16:45.153Z,4.47
2016-11-27T02:17:45.170Z,4.67
2016-11-27T02:18:45.186Z,4.36
2016-11-27T02:19:45.164Z,4.65
2016-11-27T02:20:45.181Z,4.58
2016-11-27T02:21:45.205Z,4.57
2016-11-27T02:22:45.163Z,4.73
2016-11-27T02:23:45.176Z,4.67
2016-11-27T02:24:45.193Z,4.77
2016-11-27T02:25:45.222Z,4.69
2016-11-27T02:26:45.232Z,4.77
2016-11-27T02:27:45.203Z,4.79
2016-11-27T02:28:45.202Z,4.72
2016-11-27T02:29:45.177Z,4.8
2016-11-27T02:30:45.167Z,4.84
2016-11-27T02:31:45.170Z,4.84
2016-11-27T02:32:45.170Z,4.72
2016-11-27T02:33:45.172Z,4.94
2016-11-27T02:34:45.193Z,4.76
2016-11-27T02:35:45.178Z,4.77
2016-11-27T02:36:45.190Z,4.75
2016-11-27T02:37:45.183Z,4.94
2016-11-27T02:38:45.192Z,4.76
2016-11-27T02:39:45.185Z,4.79
2016-11-27T02:40:45.223Z,4.83
2016-11-27T02:41:45.199Z,4.94
2016-11-27T02:42:45.174Z,4.96
2016-11-27T02:43:45.173Z,4.95
2016-11-27T02:44:45.219Z,4.95
2016-11-27T02:45:45.222Z,4.92
2016-11-27T02:46:45.231Z,4.89
2016-11-27T02:47:45.191Z,4.96
2016-11-27T02:48:45.231Z,5.01
2016-11-27T02:49:45.193Z,4.94
2016-11-27T02:50:45.189Z,4.94
2016-11-27T02:51:45.187Z,4.96
2016-11-27T02:52:45.185Z,4.96
2016-11-27T02:53:45.200Z,5.07
2016-11-27T02:54:45.198Z,5.07
2016-11-27T02:55:45.199Z,4.98
2016-11-27T02:56:45.206Z,4.99
2016-11-27T02:57:45.178Z,4.95
2016-11-27T02:58:45.175Z,5.07
2016-11-27T02:59:45.178Z,4.96
2016-11-27T03:00:45.211Z,4.99
2016-11-27T03:01:45.210Z,5.02
2016-11-27T03:02:45.216Z,4.98
2016-11-27T03:03:45.190Z,4.98
2016-11-27T03:04:45.203Z,4.94
2016-11-27T03:05:45.193Z,4.96
2016-11-27T03:06:45.213Z,4.99
2016-11-27T03:07:45.219Z,5.07
2016-11-27T03:08:45.182Z,5.07
2016-11-27T03:09:45.254Z,4.98
2016-11-27T03:10:45.228Z,4.94
2016-11-27T03:11:45.230Z,5.05
2016-11-27T03:12:45.207Z,5.07
2016-11-27T03:13:45.192Z,4.96
2016-11-27T03:14:45.190Z,5.02
2016-11-27T03:15:45.229Z,5.13
2016-11-27T03:16:45.246Z,5.14
2016-11-27T03:17:45.232Z,5.05
2016-11-27T03:18:45.210Z,5.09
2016-11-27T03:19:45.207Z,5.1
2016-11-27T03:20:45.229Z,5.13
2016-11-27T03:21:45.266Z,5.07
2016-11-27T03:22:45.224Z,5.05
2016-11-27T03:23:45.218Z,5.1
2016-11-27T03:24:45.222Z,4.99
2016-11-27T03:25:45.230Z,5.04
2016-11-27T03:26:45.224Z,5.13
2016-11-27T03:27:45.224Z,5.12
2016-11-27T03:28:45.255Z,5.09
2016-11-27T03:29:45.233Z,5.05
2016-11-27T03:30:45.212Z,4.94
2016-11-27T03:31:45.225Z,5.09
2016-11-27T03:32:45.220Z,5.1
2016-11-27T03:33:45.223Z,5.07
2016-11-27T03:34:45.198Z,5.13
2016-11-27T03:35:45.233Z,5.14
2016-11-27T03:36:45.255Z,4.96
2016-11-27T03:37:45.225Z,5.07
2016-11-27T03:38:45.202Z,5.13
2016-11-27T03:39:45.211Z,5.04
2016-11-27T03:40:45.224Z,5.04
2016-11-27T03:41:45.256Z,5.16
2016-11-27T03:42:45.205Z,5.1
2016-11-27T03:43:45.243Z,5.12
2016-11-27T03:44:45.234Z,5.2
2016-11-27T03:45:45.230Z,5.04
2016-11-27T03:46:45.301Z,5.1
2016-11-27T03:47:45.227Z,5.23
2016-11-27T03:48:45.263Z,5.12
2016-11-27T03:49:45.234Z,5.13
2016-11-27T03:50:45.228Z,5.1
2016-11-27T03:51:45.250Z,5.1
2016-11-27T03:52:45.277Z,5.19
2016-11-27T03:53:45.215Z,5.13
2016-11-27T03:54:45.225Z,5.16
2016-11-27T03:55:45.203Z,5.02
2016-11-27T03:56:45.255Z,5.13
2016-11-27T03:57:45.214Z,5.14
2016-11-27T03:58:45.258Z,5.02
2016-11-27T03:59:45.235Z,5.14
2016-11-27T04:00:45.225Z,5.09
2016-11-27T04:01:45.242Z,5.19
2016-11-27T04:02:45.231Z,5.1
2016-11-27T04:03:45.226Z,5.1
2016-11-27T04:04:45.241Z,5.16
2016-11-27T04:05:45.226Z,5.14
2016-11-27T04:06:45.247Z,5.04
2016-11-27T04:07:45.213Z,5.17
2016-11-27T04:08:45.242Z,4.98
2016-11-27T04:09:45.212Z,5.09
2016-11-27T04:10:45.248Z,5.09
2016-11-27T04:11:45.225Z,5.1
2016-11-27T04:12:45.244Z,5.12
2016-11-27T04:13:45.258Z,5.07
2016-11-27T04:14:45.231Z,5.05
2016-11-27T04:15:45.239Z,5.07
2016-11-27T04:16:45.240Z,5.22
2016-11-27T04:17:45.218Z,5.13
2016-11-27T04:18:45.221Z,4.98
2016-11-27T04:19:45.238Z,5.02
2016-11-27T04:20:45.228Z,5.1
2016-11-27T04:21:45.267Z,5.02
2016-11-27T04:22:45.232Z,5.01
2016-11-27T04:23:45.250Z,5.19
2016-11-27T04:24:45.215Z,5.14
2016-11-27T04:25:45.254Z,5.12
2016-11-27T04:26:45.282Z,5.19
2016-11-27T04:27:45.236Z,5.14
2016-11-27T04:28:45.239Z,5.14
2016-11-27T04:29:45.237Z,5.13
2016-11-27T04:30:45.231Z,5.17
2016-11-27T04:31:45.263Z,5.07
2016-11-27T04:32:45.240Z,5.01
2016-11-27T04:33:45.253Z,5.16
2016-11-27T04:34:45.251Z,5.17
2016-11-27T04:35:45.269Z,5.22
2016-11-27T04:36:45.317Z,5.05
2016-11-27T04:37:45.285Z,5.22
2016-11-27T04:38:45.330Z,5.04
2016-11-27T04:39:45.280Z,5.14
2016-11-27T04:40:45.262Z,5.2
2016-11-27T04:41:45.270Z,5.12
2016-11-27T04:42:45.248Z,5.09
2016-11-27T04:43:45.275Z,5.13
2016-11-27T04:44:45.261Z,5.22
2016-11-27T04:45:45.274Z,5.05
2016-11-27T04:46:45.291Z,5.22
2016-11-27T04:47:45.266Z,5.23
2016-11-27T04:48:45.281Z,5.16
2016-11-27T04:49:45.269Z,5.04
2016-11-27T04:50:45.275Z,5.25
2016-11-27T04:51:45.310Z,5.13
2016-11-27T04:52:45.309Z,5.16
2016-11-27T04:53:45.277Z,5.28
2016-11-27T04:54:45.279Z,5.12
2016-11-27T04:55:45.270Z,5.12
2016-11-27T04:56:45.313Z,5.13
2016-11-27T04:57:45.289Z,5.04
2016-11-27T04:58:45.294Z,5.19
2016-11-27T04:59:45.302Z,5.12
2016-11-27T05:00:45.311Z,5.13
2016-11-27T05:01:45.273Z,5.13
2016-11-27T05:02:45.340Z,5.12
2016-11-27T05:03:45.295Z,5.23
2016-11-27T05:04:45.268Z,5.16
2016-11-27T05:05:45.300Z,5.14
2016-11-27T05:06:45.312Z,5.25
2016-11-27T05:07:45.260Z,5.25
2016-11-27T05:08:45.309Z,5.34
2016-11-27T05:09:45.285Z,5.2
2016-11-27T05:10:45.282Z,5.13
2016-11-27T05:11:45.312Z,5.25
2016-11-27T05:12:45.257Z,5.22
2016-11-27T05:13:45.280Z,5.12
2016-11-27T05:14:45.309Z,5.25
2016-11-27T05:15:45.277Z,5.22
2016-11-27T05:16:45.283Z,5.27
2016-11-27T05:17:45.292Z,5.17
2016-11-27T05:18:45.295Z,5.27
2016-11-27T05:19:45.272Z,5.27
2016-11-27T05:20:45.284Z,5.22
2016-11-27T05:21:45.320Z,5.34
2016-11-27T05:22:45.274Z,5.28
2016-11-27T05:23:45.292Z,5.31
2016-11-27T05:24:45.284Z,5.23
2016-11-27T05:25:45.324Z,5.25
2016-11-27T05:26:45.288Z,5.25
2016-11-27T05:27:45.280Z,5.16
2016-11-27T05:28:45.272Z,5.23
2016-11-27T05:29:45.269Z,5.37
2016-11-27T05:30:45.311Z,5.16
2016-11-27T05:31:45.306Z,5.23
2016-11-27T05:32:45.310Z,5.3
2016-11-27T05:33:45.285Z,5.2
2016-11-27T05:34:45.294Z,5.31
2016-11-27T05:35:45.280Z,5.23
2016-11-27T05:36:45.302Z,5.23
2016-11-27T05:37:45.293Z,5.25
2016-11-27T05:38:45.301Z,5.35
2016-11-27T05:39:45.595Z,5.4
2016-11-27T05:40:45.308Z,5.31
2016-11-27T05:41:45.337Z,5.35
2016-11-27T05:42:45.313Z,5.31
2016-11-27T05:43:45.303Z,5.38
2016-11-27T05:44:45.311Z,5.34
2016-11-27T05:45:45.286Z,5.32
2016-11-27T05:46:45.281Z,5.32
2016-11-27T05:47:45.287Z,5.27
2016-11-27T05:48:45.307Z,5.37
2016-11-27T05:49:45.297Z,5.41
2016-11-27T05:50:45.278Z,5.43
2016-11-27T05:51:45.307Z,5.32
2016-11-27T05:52:45.289Z,5.34
2016-11-27T05:53:45.308Z,5.34
2016-11-27T05:54:45.286Z,5.55
2016-11-27T05:55:45.295Z,5.41
2016-11-27T05:56:45.318Z,5.45
2016-11-27T05:57:45.304Z,5.38
2016-11-27T05:58:45.329Z,5.34
2016-11-27T05:59:45.573Z,5.41
2016-11-27T06:00:45.371Z,5.45
2016-11-27T06:01:45.375Z,5.52
2016-11-27T06:02:45.314Z,5.5
2016-11-27T06:03:45.311Z,5.35
2016-11-27T06:04:45.345Z,5.56
2016-11-27T06:05:45.318Z,5.38
2016-11-27T06:06:45.376Z,5.4
2016-11-27T06:07:45.335Z,5.37
2016-11-27T06:08:45.316Z,5.31
2016-11-27T06:09:45.324Z,5.41
2016-11-27T06:10:45.324Z,5.48
2016-11-27T06:11:45.366Z,5.35
2016-11-27T06:12:45.315Z,5.56
2016-11-27T06:13:45.322Z,5.41
2016-11-27T06:14:45.314Z,5.34
2016-11-27T06:15:45.341Z,5.49
2016-11-27T06:16:45.348Z,5.35
2016-11-27T06:17:45.315Z,5.46
2016-11-27T06:18:45.349Z,5.43
2016-11-27T06:19:45.396Z,5.5
2016-11-27T06:20:45.313Z,5.41
2016-11-27T06:21:45.424Z,5.49
2016-11-27T06:22:45.344Z,5.4
2016-11-27T06:23:45.345Z,5.4
2016-11-27T06:24:45.332Z,5.37
2016-11-27T06:25:45.321Z,5.49
2016-11-27T06:26:45.328Z,5.52
2016-11-27T06:27:45.329Z,5.43
2016-11-27T06:28:45.335Z,5.5
2016-11-27T06:29:45.318Z,5.4
2016-11-27T06:30:45.383Z,5.64
2016-11-27T06:31:45.358Z,5.34
2016-11-27T06:32:45.332Z,5.38
2016-11-27T06:33:45.367Z,5.59
2016-11-27T06:34:45.347Z,5.48
2016-11-27T06:35:45.368Z,5.43
2016-11-27T06:36:45.386Z,5.34
2016-11-27T06:37:45.389Z,5.48
2016-11-27T06:38:45.399Z,5.52
2016-11-27T06:39:45.396Z,5.53
2016-11-27T06:40:45.352Z,5.56
2016-11-27T06:41:45.466Z,5.57
2016-11-27T06:42:45.402Z,5.59
2016-11-27T06:43:45.337Z,5.56
2016-11-27T06:44:45.355Z,5.66
2016-11-27T06:45:45.425Z,5.57
2016-11-27T06:46:45.431Z,5.55
2016-11-27T06:47:45.377Z,5.59
2016-11-27T06:48:45.342Z,5.56
2016-11-27T06:49:45.344Z,5.52
2016-11-27T06:50:45.403Z,5.71
2016-11-27T06:51:45.386Z,5.59
2016-11-27T06:52:45.355Z,5.52
2016-11-27T06:53:45.377Z,5.66
2016-11-27T06:54:45.364Z,5.66
2016-11-27T06:55:45.377Z,5.59
2016-11-27T06:56:45.369Z,5.63
2016-11-27T06:57:45.354Z,5.63
2016-11-27T06:58:45.353Z,5.67
2016-11-27T06:59:45.371Z,5.6
2016-11-27T07:00:45.428Z,5.6
2016-11-27T07:01:45.418Z,5.56
2016-11-27T07:02:45.364Z,5.7
2016-11-27T07:03:45.361Z,5.7
2016-11-27T07:04:45.352Z,5.63
2016-11-27T07:05:45.349Z,5.73
2016-11-27T07:06:45.364Z,5.68
2016-11-27T07:07:45.358Z,5.66
2016-11-27T07:08:45.355Z,5.67
2016-11-27T07:09:45.343Z,5.71
2016-11-27T07:10:45.367Z,5.53
2016-11-27T07:11:45.390Z,5.7
2016-11-27T07:12:45.396Z,5.59
2016-11-27T07:13:45.368Z,5.67
2016-11-27T07:14:45.380Z,5.67
2016-11-27T07:15:45.355Z,5.74
2016-11-27T07:16:45.385Z,5.71
2016-11-27T07:17:45.356Z,5.5
2016-11-27T07:18:45.379Z,5.6
2016-11-27T07:19:45.375Z,5.64
2016-11-27T07:20:45.394Z,5.55
2016-11-27T07:21:45.405Z,5.63
2016-11-27T07:22:45.378Z,5.48
2016-11-27T07:23:45.387Z,5.48
2016-11-27T07:24:45.381Z,5.43
2016-11-27T07:25:45.382Z,5.45
2016-11-27T07:26:45.407Z,5.41
2016-11-27T07:27:45.386Z,5.43
2016-11-27T07:28:45.421Z,5.5
2016-11-27T07:29:45.411Z,5.63
2016-11-27T07:30:45.389Z,5.5
2016-11-27T07:31:45.401Z,5.55
2016-11-27T07:32:45.375Z,5.49
2016-11-27T07:33:45.410Z,5.57
2016-11-27T07:34:45.420Z,5.6
2016-11-27T07:35:45.454Z,5.7
2016-11-27T07:36:45.439Z,5.59
2016-11-27T07:37:45.429Z,5.56
2016-11-27T07:38:45.410Z,5.64
2016-11-27T07:39:45.407Z,5.57
2016-11-27T07:40:45.414Z,5.6
2016-11-27T07:41:45.457Z,5.71
2016-11-27T07:42:45.404Z,5.68
2016-11-27T07:43:45.445Z,5.64
2016-11-27T07:44:45.434Z,5.78
2016-11-27T07:45:45.451Z,5.74
2016-11-27T07:46:45.429Z,5.73
2016-11-27T07:47:45.401Z,5.86
2016-11-27T07:48:45.387Z,5.75
2016-11-27T07:49:45.378Z,5.93
2016-11-27T07:50:45.378Z,5.75
2016-11-27T07:51:45.426Z,5.88
2016-11-27T07:52:45.397Z,5.86
2016-11-27T07:53:45.380Z,6.01
2016-11-27T07:54:45.356Z,5.91
2016-11-27T07:55:45.404Z,5.74
2016-11-27T07:56:45.394Z,6.04
2016-11-27T07:57:45.403Z,5.86
2016-11-27T07:58:45.397Z,5.92
2016-11-27T07:59:45.404Z,6.03
2016-11-27T08:00:45.393Z,5.98
2016-11-27T08:01:45.422Z,5.85
2016-11-27T08:02:45.425Z,6.06
2016-11-27T08:03:45.430Z,5.82
2016-11-27T08:04:45.425Z,5.98
2016-11-27T08:05:45.426Z,5.98
2016-11-27T08:06:45.460Z,6.11
2016-11-27T08:07:45.409Z,5.77
2016-11-27T08:08:45.400Z,5.91
2016-11-27T08:09:45.397Z,6.06
2016-11-27T08:10:45.391Z,6.03
2016-11-27T08:11:45.415Z,6.06
2016-11-27T08:12:45.415Z,6.03
2016-11-27T08:13:45.393Z,6.01
2016-11-27T08:14:45.399Z,6.09
2016-11-27T08:15:45.409Z,6.01
2016-11-27T08:16:45.427Z,5.98
2016-11-27T08:17:45.456Z,6
2016-11-27T08:18:45.408Z,5.96
2016-11-27T08:19:45.414Z,5.96
2016-11-27T08:20:45.412Z,6.04
2016-11-27T08:21:45.436Z,5.95
2016-11-27T08:22:45.402Z,6.03
2016-11-27T08:23:45.433Z,6.16
2016-11-27T08:24:45.468Z,6
2016-11-27T08:25:45.417Z,6.01
2016-11-27T08:26:45.446Z,6.14
2016-11-27T08:27:45.421Z,6.14
2016-11-27T08:28:45.422Z,6.09
2016-11-27T08:29:45.411Z,6.38
2016-11-27T08:30:45.406Z,6.13
2016-11-27T08:31:45.475Z,6.1
2016-11-27T08:32:45.504Z,6.1
2016-11-27T08:33:45.425Z,6.22
2016-11-27T08:34:45.431Z,6.28
2016-11-27T08:35:45.441Z,6.25
2016-11-27T08:36:45.457Z,6.3
2016-11-27T08:37:45.488Z,6.43
2016-11-27T08:38:45.479Z,6.32
2016-11-27T08:39:45.440Z,6.28
2016-11-27T08:40:45.451Z,6.36
2016-11-27T08:41:45.514Z,6.4
2016-11-27T08:42:45.459Z,6.53
2016-11-27T08:43:45.436Z,6.48
2016-11-27T08:44:45.481Z,6.5
2016-11-27T08:45:45.437Z,6.58
2016-11-27T08:46:45.488Z,6.59
2016-11-27T08:47:45.462Z,6.62
2016-11-27T08:48:45.456Z,6.66
2016-11-27T08:49:45.443Z,6.77
2016-11-27T08:50:45.454Z,6.71
2016-11-27T08:51:45.424Z,6.8
2016-11-27T08:52:45.432Z,6.8
2016-11-27T08:53:45.430Z,6.84
2016-11-27T08:54:45.465Z,6.87
2016-11-27T08:55:45.462Z,6.94
2016-11-27T08:56:45.456Z,7.05
2016-11-27T08:57:45.418Z,7.08
2016-11-27T08:58:47.260Z,7.02
2016-11-27T08:59:45.421Z,7.05
2016-11-27T09:00:45.615Z,7.17
2016-11-27T09:01:45.477Z,7.07
2016-11-27T09:02:45.466Z,7.07
2016-11-27T09:03:45.443Z,7.16
2016-11-27T09:04:45.441Z,7.07
2016-11-27T09:05:45.448Z,7.09
2016-11-27T09:06:45.907Z,7.22
2016-11-27T09:07:46.151Z,7.2
2016-11-27T09:08:45.459Z,7.26
2016-11-27T09:09:45.632Z,7.29
2016-11-27T09:10:45.465Z,7.41
2016-11-27T09:11:45.448Z,7.35
2016-11-27T09:12:45.431Z,7.32
2016-11-27T09:13:45.446Z,7.37
2016-11-27T09:14:45.483Z,7.53
2016-11-27T09:15:45.469Z,7.59
2016-11-27T09:16:46.096Z,7.55
2016-11-27T09:17:45.503Z,7.42
2016-11-27T09:18:47.083Z,7.56
2016-11-27T09:19:45.722Z,7.58
2016-11-27T09:20:45.433Z,7.59
2016-11-27T09:21:45.474Z,7.67
2016-11-27T09:22:45.486Z,7.77
2016-11-27T09:23:45.441Z,7.74
2016-11-27T09:24:45.462Z,7.78
2016-11-27T09:25:45.463Z,7.79
2016-11-27T09:26:45.499Z,7.78
2016-11-27T09:27:45.466Z,7.78
2016-11-27T09:28:45.458Z,7.78
2016-11-27T09:29:45.498Z,7.72
2016-11-27T09:30:45.515Z,7.89
2016-11-27T09:31:45.488Z,7.79
2016-11-27T09:32:45.502Z,7.89
2016-11-27T09:33:45.640Z,7.79
2016-11-27T09:34:45.509Z,7.97
2016-11-27T09:35:45.475Z,7.75
2016-11-27T09:36:45.486Z,7.93
2016-11-27T09:37:45.871Z,7.93
2016-11-27T09:38:45.468Z,7.97
2016-11-27T09:39:45.466Z,7.89
2016-11-27T09:40:45.458Z,7.85
2016-11-27T09:41:45.485Z,7.82
2016-11-27T09:42:47.006Z,7.94
2016-11-27T09:43:45.520Z,7.93
2016-11-27T09:44:45.506Z,8
2016-11-27T09:45:45.455Z,8.03
2016-11-27T09:46:47.613Z,7.92
2016-11-27T09:47:46.003Z,7.89
2016-11-27T09:48:45.469Z,7.9
2016-11-27T09:49:45.474Z,7.92
2016-11-27T09:50:45.654Z,7.99
2016-11-27T09:51:46.173Z,7.92
2016-11-27T09:52:45.484Z,7.85
2016-11-27T09:53:45.457Z,7.93
2016-11-27T09:54:45.478Z,7.94
2016-11-27T09:55:45.504Z,8.02
2016-11-27T09:56:45.481Z,8.02
2016-11-27T09:57:45.472Z,7.93
2016-11-27T09:58:45.515Z,8.04
2016-11-27T09:59:45.511Z,7.97
2016-11-27T10:00:45.484Z,8.14
2016-11-27T10:01:45.501Z,8
2016-11-27T10:02:45.513Z,7.97
2016-11-27T10:03:45.786Z,7.99
2016-11-27T10:04:45.470Z,8.08
2016-11-27T10:05:45.518Z,7.97
2016-11-27T10:06:45.528Z,8.04
2016-11-27T10:07:45.542Z,8
2016-11-27T10:08:45.507Z,8.11
2016-11-27T10:09:49.809Z,8.15
2016-11-27T10:10:48.084Z,8.11
2016-11-27T10:11:51.454Z,8.14
2016-11-27T10:12:50.177Z,8.25
2016-11-27T10:13:48.570Z,8.21
2016-11-27T10:14:45.494Z,8.22
2016-11-27T10:15:45.924Z,8.32
2016-11-27T10:16:45.742Z,8.26
2016-11-27T10:17:51.508Z,8.18
2016-11-27T10:18:52.682Z,8.22
2016-11-27T10:19:51.798Z,8.15
2016-11-27T10:20:54.656Z,8.25
2016-11-27T10:21:52.018Z,8.29
2016-11-27T10:22:52.183Z,8.26
2016-11-27T10:23:52.561Z,8.2
2016-11-27T10:24:57.105Z,8.28
2016-11-27T10:25:51.998Z,8.26
2016-11-27T10:26:51.931Z,8.28
2016-11-27T10:27:51.055Z,8.21
2016-11-27T10:28:52.074Z,8.26
2016-11-27T10:29:52.662Z,8.36
2016-11-27T10:30:52.952Z,8.51
2016-11-27T10:31:52.268Z,8.55
2016-11-27T10:32:52.724Z,8.57
2016-11-27T10:33:51.529Z,8.48
2016-11-27T10:34:53.141Z,8.54
2016-11-27T10:35:51.961Z,8.58
2016-11-27T10:36:51.013Z,8.58
2016-11-27T10:37:52.036Z,8.63
2016-11-27T10:38:53.227Z,8.66
2016-11-27T10:39:52.590Z,8.58
2016-11-27T10:40:45.614Z,8.66
2016-11-27T10:41:45.792Z,8.6
2016-11-27T10:42:45.576Z,8.5
2016-11-27T10:43:45.571Z,8.54
2016-11-27T10:44:45.539Z,8.5
2016-11-27T10:45:45.534Z,8.37
2016-11-27T10:46:45.557Z,8.45
2016-11-27T10:47:45.596Z,8.36
2016-11-27T10:48:45.595Z,8.3
2016-11-27T10:49:45.518Z,8.3
2016-11-27T10:50:45.567Z,8.4
2016-11-27T10:51:45.883Z,8.36
2016-11-27T10:52:45.583Z,8.35
2016-11-27T10:53:45.554Z,8.4
2016-11-27T10:54:45.558Z,8.29
2016-11-27T10:55:46.133Z,8.47
2016-11-27T10:56:45.609Z,8.36
2016-11-27T10:57:48.501Z,8.35
2016-11-27T10:58:45.568Z,8.4
2016-11-27T10:59:45.894Z,8.4
2016-11-27T11:00:46.150Z,8.55
2016-11-27T11:01:45.864Z,8.62
2016-11-27T11:02:45.564Z,8.65
2016-11-27T11:03:45.589Z,8.63
2016-11-27T11:04:45.557Z,8.71
2016-11-27T11:05:45.590Z,8.65
2016-11-27T11:06:45.574Z,8.78
2016-11-27T11:07:45.584Z,8.86
2016-11-27T11:08:45.592Z,8.86
2016-11-27T11:09:45.529Z,8.94
2016-11-27T11:10:45.535Z,9.05
2016-11-27T11:11:45.627Z,9.12
2016-11-27T11:12:46.098Z,9.25
2016-11-27T11:13:45.628Z,9.24
2016-11-27T11:14:45.557Z,9.25
2016-11-27T11:15:45.560Z,9.25
2016-11-27T11:16:46.821Z,9.23
2016-11-27T11:17:45.581Z,9.23
2016-11-27T11:18:45.842Z,9.32
2016-11-27T11:19:45.568Z,9.31
2016-11-27T11:20:45.738Z,9.25
2016-11-27T11:21:45.554Z,9.42
2016-11-27T11:22:45.567Z,9.4
2016-11-27T11:23:45.592Z,9.49
2016-11-27T11:24:45.671Z,9.53
2016-11-27T11:25:45.551Z,9.48
2016-11-27T11:26:45.578Z,9.48
2016-11-27T11:27:45.599Z,9.4
2016-11-27T11:28:45.591Z,9.48
2016-11-27T11:29:45.597Z,9.63
2016-11-27T11:30:46.099Z,9.56
2016-11-27T11:31:45.609Z,9.48
2016-11-27T11:32:45.772Z,9.42
2016-11-27T11:33:45.567Z,9.35
2016-11-27T11:34:45.628Z,9.45
2016-11-27T11:35:45.564Z,9.35
2016-11-27T11:36:45.548Z,9.3
2016-11-27T11:37:49.180Z,9.31
2016-11-27T11:38:45.568Z,9.3
2016-11-27T11:39:45.557Z,9.3
2016-11-27T11:40:46.124Z,9.3
2016-11-27T11:41:45.618Z,9.32
2016-11-27T11:42:45.602Z,9.38
2016-11-27T11:43:45.812Z,9.5
2016-11-27T11:44:45.610Z,9.49
2016-11-27T11:45:45.704Z,9.4
2016-11-27T11:46:45.885Z,9.35
2016-11-27T11:47:45.583Z,9.34
2016-11-27T11:48:45.568Z,9.34
2016-11-27T11:49:45.580Z,9.28
2016-11-27T11:50:45.567Z,9.15
2016-11-27T11:51:46.137Z,9.28
2016-11-27T11:52:45.631Z,9.16
2016-11-27T11:53:45.596Z,9.16
2016-11-27T11:54:45.567Z,9.13
2016-11-27T11:55:45.642Z,9.1
2016-11-27T11:56:45.942Z,9.01
2016-11-27T11:57:45.613Z,8.97
2016-11-27T11:58:45.576Z,9.01
2016-11-27T11:59:45.588Z,8.93
2016-11-27T12:00:45.576Z,8.94
2016-11-27T12:01:45.643Z,8.9
2016-11-27T12:02:45.589Z,8.87
2016-11-27T12:03:45.818Z,8.76
2016-11-27T12:04:45.634Z,8.72
2016-11-27T12:05:45.587Z,8.78
2016-11-27T12:06:45.608Z,8.81
2016-11-27T12:07:46.373Z,8.66
2016-11-27T12:08:45.579Z,8.84
2016-11-27T12:09:45.597Z,8.76
2016-11-27T12:10:46.198Z,8.72
2016-11-27T12:11:45.569Z,8.76
2016-11-27T12:12:45.622Z,8.72
2016-11-27T12:13:46.296Z,8.65
2016-11-27T12:14:45.603Z,8.78
2016-11-27T12:15:45.622Z,8.71
2016-11-27T12:16:45.615Z,8.55
2016-11-27T12:17:45.607Z,8.79
2016-11-27T12:18:45.597Z,8.71
2016-11-27T12:19:47.302Z,8.51
2016-11-27T12:20:45.614Z,8.66
2016-11-27T12:21:45.579Z,8.55
2016-11-27T12:22:45.605Z,8.54
2016-11-27T12:23:45.621Z,8.55
2016-11-27T12:24:46.344Z,8.57
2016-11-27T12:25:45.650Z,8.53
2016-11-27T12:26:45.606Z,8.55
2016-11-27T12:27:45.628Z,8.63
2016-11-27T12:28:45.650Z,8.58
2016-11-27T12:29:45.618Z,8.44
2016-11-27T12:30:45.595Z,8.39
2016-11-27T12:31:45.656Z,8.54
2016-11-27T12:32:48.277Z,8.65
2016-11-27T12:33:45.647Z,8.6
2016-11-27T12:34:45.651Z,8.63
2016-11-27T12:35:48.120Z,8.53
2016-11-27T12:36:47.803Z,8.48
2016-11-27T12:37:46.003Z,8.53
2016-11-27T12:38:45.624Z,8.6
2016-11-27T12:39:45.659Z,8.53
2016-11-27T12:40:45.598Z,8.45
2016-11-27T12:41:45.609Z,8.6
2016-11-27T12:42:45.646Z,8.55
2016-11-27T12:43:46.303Z,8.6
2016-11-27T12:44:46.273Z,8.57
2016-11-27T12:45:45.682Z,8.48
2016-11-27T12:46:45.983Z,8.45
2016-11-27T12:47:45.638Z,8.54
2016-11-27T12:48:45.620Z,8.51
2016-11-27T12:49:45.646Z,8.47
2016-11-27T12:50:45.614Z,8.47
2016-11-27T12:51:45.623Z,8.65
2016-11-27T12:52:45.630Z,8.58
2016-11-27T12:53:46.059Z,8.63
2016-11-27T12:54:45.638Z,8.55
2016-11-27T12:55:45.703Z,8.63
2016-11-27T12:56:45.623Z,8.53
2016-11-27T12:57:45.662Z,8.58
2016-11-27T12:58:46.014Z,8.71
2016-11-27T12:59:45.640Z,8.6
2016-11-27T13:00:45.611Z,8.58
2016-11-27T13:01:45.627Z,8.66
2016-11-27T13:02:45.659Z,8.83
2016-11-27T13:03:45.633Z,8.71
2016-11-27T13:04:45.700Z,8.83
2016-11-27T13:05:45.747Z,8.79
2016-11-27T13:06:45.637Z,8.83
2016-11-27T13:07:45.827Z,8.9
2016-11-27T13:08:45.672Z,8.84
2016-11-27T13:09:45.628Z,8.9
2016-11-27T13:10:46.712Z,8.81
2016-11-27T13:11:45.958Z,8.99
2016-11-27T13:12:45.832Z,8.96
2016-11-27T13:13:45.656Z,8.97
2016-11-27T13:14:46.284Z,8.9
2016-11-27T13:15:46.438Z,8.97
2016-11-27T13:16:45.654Z,9.04
2016-11-27T13:17:45.652Z,8.96
2016-11-27T13:18:47.178Z,8.96
2016-11-27T13:19:47.714Z,9.04
2016-11-27T13:20:45.692Z,8.91
2016-11-27T13:21:45.660Z,9.02
2016-11-27T13:22:46.206Z,9.06